Time;durP1;ratioP1;P1;durP2;ratioP2;P2;SDS_P1;SDS_P2;PMS_P1;PMS_P2;Temp;Humidity;BMP_temperature;BMP_pressure;BME280_temperature;BME280_humidity;BME280_pressure;Samples;Min_cycle;Max_cycle;Signal;HPM_P1;HPM_P2
2021/04/13 00:01:12;;;;;;;1999.90;999.90;;;15.50;96.50;;;;;;5032932;28;20733;-45
2021/04/13 00:03:45;;;;;;;1999.90;999.90;;;15.40;96.80;;;;;;5032990;28;20155;-47
2021/04/13 00:06:24;;;;;;;1999.90;999.90;;;15.40;96.70;;;;;;5032945;28;20237;-45
2021/04/13 00:08:55;;;;;;;1999.90;999.90;;;15.40;97.10;;;;;;5032870;28;20150;-44
2021/04/13 00:11:23;;;;;;;1999.90;999.90;;;15.30;96.90;;;;;;5032818;28;20158;-44
2021/04/13 00:13:54;;;;;;;1999.90;999.90;;;15.30;97.20;;;;;;5032640;28;20201;-45
2021/04/13 00:16:27;;;;;;;1999.90;999.90;;;15.30;97.20;;;;;;5032747;28;20158;-45
2021/04/13 00:18:55;;;;;;;1999.90;999.90;;;15.20;96.90;;;;;;5032449;28;20249;-46
2021/04/13 00:21:36;;;;;;;1999.90;999.90;;;15.20;96.80;;;;;;5032600;28;20170;-47
2021/04/13 00:24:16;;;;;;;1999.90;999.90;;;15.20;96.90;;;;;;5032619;28;20173;-48
2021/04/13 00:26:52;;;;;;;1999.90;999.90;;;15.20;96.90;;;;;;5032542;28;20545;-47
2021/04/13 00:29:22;;;;;;;1999.90;999.90;;;15.20;96.90;;;;;;5032483;28;20172;-46
2021/04/13 00:31:50;;;;;;;1999.90;999.90;;;15.20;96.70;;;;;;5032469;28;20302;-45
2021/04/13 00:34:23;;;;;;;1999.90;999.90;;;15.10;97.10;;;;;;5032334;28;20201;-45
2021/04/13 00:36:52;;;;;;;1999.90;999.90;;;15.10;97.40;;;;;;5032662;28;20178;-46
2021/04/13 00:39:27;;;;;;;1999.90;999.90;;;15.10;97.20;;;;;;5032389;28;20173;-43
2021/04/13 00:42:02;;;;;;;1999.90;999.90;;;15.10;97.00;;;;;;5032383;28;20496;-46
2021/04/13 00:44:34;;;;;;;1999.90;999.90;;;15.00;97.20;;;;;;5032338;28;20246;-45
2021/04/13 00:47:08;;;;;;;1999.90;999.90;;;15.00;97.40;;;;;;5032298;28;20192;-46
2021/04/13 00:49:42;;;;;;;1999.90;999.90;;;15.00;97.50;;;;;;5031563;28;20158;-44
2021/04/13 00:52:15;;;;;;;1999.90;999.90;;;14.90;97.50;;;;;;5032410;28;20219;-44
2021/04/13 00:54:47;;;;;;;1999.90;999.90;;;14.90;97.50;;;;;;5032179;28;20193;-46
2021/04/13 00:57:27;;;;;;;1999.90;999.90;;;14.90;97.80;;;;;;5032149;28;20186;-47
2021/04/13 00:59:57;;;;;;;1999.90;999.90;;;14.90;97.40;;;;;;5032107;28;20521;-45
2021/04/13 01:02:31;;;;;;;1999.90;999.90;;;15.00;97.20;;;;;;5031926;28;20266;-49
2021/04/13 01:05:02;;;;;;;1999.90;999.90;;;14.90;97.10;;;;;;5031991;28;20250;-44
2021/04/13 01:07:44;;;;;;;1999.90;999.90;;;14.90;97.60;;;;;;5031890;28;20170;-47
2021/04/13 01:10:30;;;;;;;1999.90;999.90;;;15.00;96.90;;;;;;5032018;28;20162;-45
2021/04/13 01:13:21;;;;;;;1999.90;999.90;;;14.90;96.90;;;;;;5031840;28;20158;-45
2021/04/13 01:15:51;;;;;;;1999.90;999.90;;;14.90;97.20;;;;;;5031851;28;20170;-45
2021/04/13 01:18:23;;;;;;;1999.90;999.90;;;14.80;96.60;;;;;;5031576;28;20628;-46
2021/04/13 01:20:58;;;;;;;1999.90;999.90;;;14.90;96.30;;;;;;5031748;28;20260;-46
2021/04/13 01:23:32;;;;;;;1999.90;999.90;;;14.90;95.20;;;;;;5031717;28;20146;-46
2021/04/13 01:26:05;;;;;;;1999.90;999.90;;;14.90;94.80;;;;;;5031529;28;20166;-44
2021/04/13 01:28:36;;;;;;;1999.90;999.90;;;14.90;94.40;;;;;;5031666;28;20241;-45
2021/04/13 01:31:41;;;;;;;1999.90;999.90;;;14.90;94.30;;;;;;5031604;28;20162;-44
2021/04/13 01:34:59;;;;;;;1999.90;999.90;;;14.90;94.30;;;;;;5031288;28;20715;-45
2021/04/13 01:40:22;;;;;;;1999.90;999.90;;;14.90;94.10;;;;;;5031431;28;20154;-44
2021/04/13 01:42:52;;;;;;;1999.90;999.90;;;14.90;93.80;;;;;;5031346;28;20173;-43
2021/04/13 01:45:27;;;;;;;1999.90;999.90;;;14.80;94.80;;;;;;5031287;28;20174;-44
2021/04/13 01:47:56;;;;;;;1999.90;999.90;;;14.70;95.70;;;;;;5031382;28;20240;-44
2021/04/13 01:50:46;;;;;;;1999.90;999.90;;;14.70;96.30;;;;;;5031171;28;20201;-43
2021/04/13 01:53:16;;;;;;;1999.90;999.90;;;14.50;96.50;;;;;;5031163;28;20588;-44
2021/04/13 01:55:57;;;;;;;1999.90;999.90;;;14.60;97.00;;;;;;5031317;28;20537;-43
2021/04/13 01:58:41;;;;;;;1999.90;999.90;;;14.50;96.90;;;;;;5031283;28;20158;-44
2021/04/13 02:01:33;;;;;;;1999.90;999.90;;;14.40;97.70;;;;;;5029897;28;20173;-44
2021/04/13 02:04:23;;;;;;;1999.90;999.90;;;14.40;98.10;;;;;;5032983;28;20273;-43
2021/04/13 02:07:08;;;;;;;1999.90;999.90;;;14.30;98.00;;;;;;5030938;28;20174;-43
2021/04/13 02:09:43;;;;;;;1999.90;999.90;;;14.30;98.40;;;;;;5031025;28;20244;-43
2021/04/13 02:12:31;;;;;;;1999.90;999.90;;;14.30;98.60;;;;;;5030891;28;20208;-43
2021/04/13 02:15:17;;;;;;;1999.90;999.90;;;14.30;98.60;;;;;;5030803;28;20250;-43
2021/04/13 02:17:57;;;;;;;1999.90;999.90;;;14.30;98.50;;;;;;5030811;28;20235;-44
2021/04/13 02:20:30;;;;;;;1999.90;999.90;;;14.30;98.80;;;;;;5030674;28;20218;-43
2021/04/13 02:22:57;;;;;;;1999.90;999.90;;;14.40;98.60;;;;;;5030772;28;20624;-44
2021/04/13 02:25:30;;;;;;;1999.90;999.90;;;14.30;98.70;;;;;;5030654;28;20224;-43
2021/04/13 02:27:58;;;;;;;1999.90;999.90;;;14.40;98.50;;;;;;5030738;28;20166;-45
2021/04/13 02:30:35;;;;;;;1999.90;999.90;;;14.40;98.20;;;;;;5030708;28;20172;-46
2021/04/13 02:33:28;;;;;;;1999.90;999.90;;;14.40;98.30;;;;;;5030666;28;20214;-44
2021/04/13 02:35:56;;;;;;;1999.90;999.90;;;14.50;98.20;;;;;;5030620;28;20186;-44
2021/04/13 02:38:29;;;;;;;1999.90;999.90;;;14.50;97.90;;;;;;5030547;28;20166;-44
2021/04/13 02:41:11;;;;;;;1999.90;999.90;;;14.50;97.70;;;;;;5030591;28;20154;-43
2021/04/13 02:43:45;;;;;;;1999.90;999.90;;;14.50;97.50;;;;;;5030400;28;20232;-44
2021/04/13 02:46:27;;;;;;;1999.90;999.90;;;14.40;97.70;;;;;;5030385;28;20211;-44
2021/04/13 02:49:13;;;;;;;1999.90;999.90;;;14.40;97.50;;;;;;5030469;28;20689;-43
2021/04/13 02:51:54;;;;;;;1999.90;999.90;;;14.40;97.40;;;;;;5030378;28;20162;-43
2021/04/13 02:54:44;;;;;;;1999.90;999.90;;;14.50;97.10;;;;;;5030299;28;20193;-44
2021/04/13 02:57:40;;;;;;;1999.90;999.90;;;14.50;97.10;;;;;;5030375;28;20158;-43
2021/04/13 03:00:17;;;;;;;1999.90;999.90;;;14.50;97.10;;;;;;5028981;28;20177;-43
2021/04/13 03:02:47;;;;;;;1999.90;999.90;;;14.50;97.00;;;;;;5030064;28;20213;-43
2021/04/13 03:05:20;;;;;;;1999.90;999.90;;;14.50;97.20;;;;;;5030006;28;20170;-47
2021/04/13 03:07:48;;;;;;;1999.90;999.90;;;14.50;96.50;;;;;;5030010;28;20170;-44
2021/04/13 03:10:18;;;;;;;1999.90;999.90;;;14.40;96.70;;;;;;5029867;28;20178;-45
2021/04/13 03:12:52;;;;;;;1999.90;999.90;;;14.40;96.60;;;;;;5029406;28;20249;-44
2021/04/13 03:15:28;;;;;;;1999.90;999.90;;;14.30;96.80;;;;;;5029747;28;20531;-45
2021/04/13 03:18:00;;;;;;;1999.90;999.90;;;14.20;96.70;;;;;;5029948;28;20153;-43
2021/04/13 03:20:30;;;;;;;1999.90;999.90;;;14.20;97.00;;;;;;5029665;28;20217;-45
2021/04/13 03:23:00;;;;;;;1999.90;999.90;;;14.20;97.20;;;;;;5029819;28;20178;-43
2021/04/13 03:25:33;;;;;;;1999.90;999.90;;;14.10;97.40;;;;;;5029851;28;20174;-44
2021/04/13 03:28:06;;;;;;;1999.90;999.90;;;14.10;97.40;;;;;;5029855;28;20169;-46
2021/04/13 03:30:35;;;;;;;1999.90;999.90;;;14.10;97.60;;;;;;5029934;28;20162;-43
2021/04/13 03:33:15;;;;;;;1999.90;999.90;;;14.10;97.60;;;;;;5028618;28;20173;-45
2021/04/13 03:35:42;;;;;;;1999.90;999.90;;;14.00;97.60;;;;;;5029809;28;20166;-45
2021/04/13 03:38:13;;;;;;;1999.90;999.90;;;14.00;97.70;;;;;;5029670;28;20173;-43
2021/04/13 03:40:46;;;;;;;1999.90;999.90;;;14.00;97.70;;;;;;5029794;28;20211;-43
2021/04/13 03:43:16;;;;;;;1999.90;999.90;;;14.00;97.70;;;;;;5029683;28;20169;-43
2021/04/13 03:45:44;;;;;;;1999.90;999.90;;;14.00;97.70;;;;;;5029563;28;20178;-45
2021/04/13 03:48:20;;;;;;;1999.90;999.90;;;13.90;97.80;;;;;;5029525;28;20185;-45
2021/04/13 03:50:54;;;;;;;1999.90;999.90;;;13.90;98.10;;;;;;5029685;28;20666;-50
2021/04/13 03:53:30;;;;;;;1999.90;999.90;;;13.90;98.10;;;;;;5029481;28;20494;-44
2021/04/13 03:56:01;;;;;;;1999.90;999.90;;;13.80;98.20;;;;;;5029630;28;20158;-45
2021/04/13 03:58:34;;;;;;;1999.90;999.90;;;13.80;98.40;;;;;;5029730;28;20495;-45
2021/04/13 04:01:01;;;;;;;1999.90;999.90;;;13.70;98.40;;;;;;5029609;28;20603;-45
2021/04/13 04:03:34;;;;;;;1999.90;999.90;;;13.80;98.20;;;;;;5029528;28;20170;-45
2021/04/13 04:06:02;;;;;;;1999.90;999.90;;;13.90;97.90;;;;;;5029260;28;20260;-44
2021/04/13 04:08:46;;;;;;;1999.90;999.90;;;13.90;98.10;;;;;;5029174;28;20185;-45
2021/04/13 04:11:14;;;;;;;1999.90;999.90;;;13.80;98.10;;;;;;5029226;28;20253;-43
2021/04/13 04:13:51;;;;;;;1999.90;999.90;;;14.00;98.20;;;;;;5029178;28;20190;-45
2021/04/13 04:16:21;;;;;;;1999.90;999.90;;;14.00;98.00;;;;;;5029232;28;20260;-44
2021/04/13 04:18:51;;;;;;;1999.90;999.90;;;14.10;97.60;;;;;;5028977;28;20249;-44
2021/04/13 04:21:36;;;;;;;1999.90;999.90;;;14.10;96.60;;;;;;5029197;28;20659;-43
2021/04/13 04:24:22;;;;;;;1999.90;999.90;;;14.10;96.20;;;;;;5030624;28;20201;-46
2021/04/13 04:26:58;;;;;;;1999.90;999.90;;;14.00;95.50;;;;;;5032623;28;20196;-43
2021/04/13 04:29:48;;;;;;;1999.90;999.90;;;13.90;95.50;;;;;;5032550;28;20620;-42
2021/04/13 04:32:39;;;;;;;1999.90;999.90;;;14.00;95.10;;;;;;5032490;28;20186;-43
2021/04/13 04:35:09;;;;;;;1999.90;999.90;;;13.90;95.50;;;;;;5032184;28;20196;-46
2021/04/13 04:37:46;;;;;;;1999.90;999.90;;;13.90;95.50;;;;;;5032325;28;20180;-45
2021/04/13 04:40:28;;;;;;;1999.90;999.90;;;13.90;95.00;;;;;;5032366;28;20158;-43
2021/04/13 04:43:01;;;;;;;1999.90;999.90;;;13.90;95.30;;;;;;5032269;28;20261;-43
2021/04/13 04:45:43;;;;;;;1999.90;999.90;;;13.90;95.10;;;;;;5032451;28;20736;-44
2021/04/13 04:48:36;;;;;;;1999.90;999.90;;;13.90;95.30;;;;;;5032281;28;20170;-43
2021/04/13 04:51:14;;;;;;;1999.90;999.90;;;14.00;95.10;;;;;;5032371;28;20166;-46
2021/04/13 04:53:42;;;;;;;1999.90;999.90;;;14.00;95.00;;;;;;5032046;28;20193;-45
2021/04/13 04:56:12;;;;;;;1999.90;999.90;;;13.90;95.10;;;;;;5032084;28;20173;-44
2021/04/13 04:58:39;;;;;;;1999.90;999.90;;;14.00;94.90;;;;;;5032057;28;20188;-46
2021/04/13 05:01:07;;;;;;;1999.90;999.90;;;14.00;94.80;;;;;;5032059;28;20659;-44
2021/04/13 05:03:34;;;;;;;1999.90;999.90;;;14.00;94.80;;;;;;5031883;28;20178;-45
2021/04/13 05:06:01;;;;;;;1999.90;999.90;;;14.00;94.70;;;;;;5032097;28;20520;-43
2021/04/13 05:08:27;;;;;;;1999.90;999.90;;;14.00;94.50;;;;;;5031740;28;20182;-45
2021/04/13 05:10:54;;;;;;;1999.90;999.90;;;14.00;94.40;;;;;;5031800;28;20644;-43
2021/04/13 05:13:22;;;;;;;1999.90;999.90;;;14.10;93.90;;;;;;5031725;28;20219;-44
2021/04/13 05:15:49;;;;;;;1999.90;999.90;;;14.10;94.00;;;;;;5031711;28;20173;-43
2021/04/13 05:18:16;;;;;;;1999.90;999.90;;;14.10;95.10;;;;;;5031602;28;20181;-43
2021/04/13 05:20:43;;;;;;;1999.90;999.90;;;14.00;95.80;;;;;;5031445;28;20225;-43
2021/04/13 05:23:10;;;;;;;1999.90;999.90;;;14.10;95.80;;;;;;5031545;28;20223;-45
2021/04/13 05:25:37;;;;;;;1999.90;999.90;;;14.10;95.40;;;;;;5031499;28;20169;-47
2021/04/13 05:28:05;;;;;;;1999.90;999.90;;;14.10;95.50;;;;;;5031459;28;20174;-46
2021/04/13 05:30:32;;;;;;;1999.90;999.90;;;14.20;95.00;;;;;;5031760;28;20178;-44
2021/04/13 05:32:59;;;;;;;1999.90;999.90;;;14.20;95.20;;;;;;5031307;28;20190;-48
2021/04/13 05:35:27;;;;;;;1999.90;999.90;;;14.20;95.60;;;;;;5031081;28;20201;-45
2021/04/13 05:38:05;;;;;;;1999.90;999.90;;;14.20;95.90;;;;;;5031223;28;20248;-45
2021/04/13 05:40:35;;;;;;;1999.90;999.90;;;14.30;96.20;;;;;;5031254;28;20162;-45
2021/04/13 05:43:03;;;;;;;1999.90;999.90;;;14.30;96.50;;;;;;5031078;28;20178;-44
2021/04/13 05:45:33;;;;;;;1999.90;999.90;;;14.30;96.60;;;;;;5031021;28;20174;-44
2021/04/13 05:48:01;;;;;;;1999.90;999.90;;;14.30;96.90;;;;;;5031267;28;20166;-44
2021/04/13 05:50:33;;;;;;;1999.90;999.90;;;14.40;96.70;;;;;;5030941;28;20230;-44
2021/04/13 05:53:00;;;;;;;1999.90;999.90;;;14.50;96.70;;;;;;5030888;28;20166;-46
2021/04/13 05:55:30;;;;;;;1999.90;999.90;;;14.70;96.90;;;;;;5030739;28;20246;-44
2021/04/13 05:58:09;;;;;;;1999.90;999.90;;;14.90;96.30;;;;;;5030856;28;20197;-44
2021/04/13 06:00:36;;;;;;;1999.90;999.90;;;15.00;96.00;;;;;;5030844;28;20639;-50
2021/04/13 06:03:03;;;;;;;1999.90;999.90;;;15.20;94.20;;;;;;5031346;28;20178;-42
2021/04/13 06:05:32;;;;;;;1999.90;999.90;;;15.50;93.40;;;;;;5030900;28;20523;-48
2021/04/13 06:07:59;;;;;;;1999.90;999.90;;;15.60;92.50;;;;;;5030711;28;20191;-45
2021/04/13 06:10:26;;;;;;;1999.90;999.90;;;15.90;92.10;;;;;;5030817;28;20166;-45
2021/04/13 06:12:56;;;;;;;1999.90;999.90;;;16.00;91.50;;;;;;5030598;28;20253;-47
2021/04/13 06:15:24;;;;;;;1999.90;999.90;;;16.10;91.80;;;;;;5030046;28;20241;-45
2021/04/13 06:17:52;;;;;;;1999.90;999.90;;;16.20;91.70;;;;;;5029834;28;20223;-46
2021/04/13 06:20:20;;;;;;;1999.90;999.90;;;16.30;92.00;;;;;;5029808;28;20230;-48
2021/04/13 06:22:48;;;;;;;1999.90;999.90;;;16.50;91.90;;;;;;5030120;28;20287;-44
2021/04/13 06:25:18;;;;;;;1999.90;999.90;;;16.50;91.70;;;;;;5030147;28;20640;-53
2021/04/13 06:27:45;;;;;;;1999.90;999.90;;;16.70;91.70;;;;;;5029924;28;20186;-48
2021/04/13 06:30:12;;;;;;;1999.90;999.90;;;16.60;91.90;;;;;;5029793;28;20193;-50
2021/04/13 06:32:39;;;;;;;1999.90;999.90;;;16.70;91.90;;;;;;5030229;28;20170;-46
2021/04/13 06:35:07;;;;;;;1999.90;999.90;;;16.70;91.50;;;;;;5030219;28;20201;-46
2021/04/13 06:37:35;;;;;;;1999.90;999.90;;;16.80;91.00;;;;;;5030089;28;20231;-47
2021/04/13 06:40:05;;;;;;;1999.90;999.90;;;17.00;90.40;;;;;;5029790;28;20178;-47
2021/04/13 06:43:08;;;;;;;1999.90;999.90;;;17.10;90.40;;;;;;5029139;28;20531;-46
2021/04/13 06:45:53;;;;;;;1999.90;999.90;;;17.20;90.20;;;;;;5042637;28;20629;-44
2021/04/13 06:48:40;;;;;;;1999.90;999.90;;;17.30;89.80;;;;;;5113067;28;20156;-45
2021/04/13 06:51:20;;;;;;;1999.90;999.90;;;17.50;89.70;;;;;;5112994;28;20617;-40
2021/04/13 06:54:23;;;;;;;1999.90;999.90;;;17.70;88.10;;;;;;5033813;28;20225;-40
2021/04/13 06:57:17;;;;;;;1999.90;999.90;;;17.80;86.50;;;;;;5029512;28;20162;-41
2021/04/13 06:59:53;;;;;;;1999.90;999.90;;;17.90;84.30;;;;;;5029969;28;20155;-45
2021/04/13 07:02:29;;;;;;;1999.90;999.90;;;18.10;84.10;;;;;;5029416;28;20158;-42
2021/04/13 07:05:24;;;;;;;1999.90;999.90;;;18.30;83.80;;;;;;5029313;28;20170;-42
2021/04/13 07:08:20;;;;;;;1999.90;999.90;;;18.50;84.20;;;;;;5030908;28;20273;-41
2021/04/13 07:10:54;;;;;;;1999.90;999.90;;;18.70;81.40;;;;;;5029680;28;20170;-47
2021/04/13 07:13:45;;;;;;;1999.90;999.90;;;18.90;79.10;;;;;;5028818;28;20530;-48
2021/04/13 07:16:38;;;;;;;1999.90;999.90;;;19.10;77.80;;;;;;5029503;28;20170;-47
2021/04/13 07:19:24;;;;;;;1999.90;999.90;;;19.30;77.50;;;;;;5029207;28;20225;-48
2021/04/13 07:21:58;;;;;;;1999.90;999.90;;;19.40;78.40;;;;;;5029071;28;20166;-53
2021/04/13 07:24:57;;;;;;;1999.90;999.90;;;19.50;78.00;;;;;;5029451;28;20517;-52
2021/04/13 07:27:39;;;;;;;1999.90;999.90;;;19.50;78.10;;;;;;5029230;28;20151;-43
2021/04/13 07:30:23;;;;;;;1999.90;999.90;;;19.50;76.40;;;;;;5029093;28;20245;-46
2021/04/13 07:32:57;;;;;;;1999.90;999.90;;;19.60;76.30;;;;;;5009412;28;20163;-45
2021/04/13 07:35:28;;;;;;;1999.90;999.90;;;19.70;74.90;;;;;;5009480;28;20202;-51
2021/04/13 07:37:56;;;;;;;1999.90;999.90;;;19.80;75.20;;;;;;5027409;28;20620;-50
2021/04/13 07:40:39;;;;;;;1999.90;999.90;;;20.00;75.30;;;;;;5028806;28;20174;-56
2021/04/13 07:43:15;;;;;;;1999.90;999.90;;;20.40;74.60;;;;;;5014601;28;20264;-51
2021/04/13 07:45:49;;;;;;;1999.90;999.90;;;20.50;73.40;;;;;;5028995;28;20211;-50
2021/04/13 07:48:44;;;;;;;1999.90;999.90;;;20.80;70.10;;;;;;5041658;28;20162;-52
2021/04/13 07:51:13;;;;;;;1999.90;999.90;;;21.10;69.20;;;;;;5044459;28;20166;-50
2021/04/13 07:53:58;;;;;;;1999.90;999.90;;;21.50;67.70;;;;;;5037362;28;20189;-48
2021/04/13 07:56:46;;;;;;;1999.90;999.90;;;21.80;65.40;;;;;;5029019;28;20159;-51
2021/04/13 07:59:26;;;;;;;1999.90;999.90;;;22.00;65.50;;;;;;5030812;28;20186;-50
2021/04/13 08:01:53;;;;;;;1999.90;999.90;;;22.00;66.20;;;;;;5032280;28;20497;-49
2021/04/13 08:04:23;;;;;;;1999.90;999.90;;;22.20;66.20;;;;;;5032346;28;20211;-47
2021/04/13 08:07:04;;;;;;;1999.90;999.90;;;22.30;64.40;;;;;;5031672;28;20189;-45
2021/04/13 08:09:42;;;;;;;1999.90;999.90;;;22.30;63.50;;;;;;5031484;28;20209;-43
2021/04/13 08:12:34;;;;;;;1999.90;999.90;;;22.30;62.70;;;;;;5032373;28;20544;-39
2021/04/13 08:15:05;;;;;;;1999.90;999.90;;;22.60;63.30;;;;;;5012831;28;20311;-45
2021/04/13 08:17:51;;;;;;;1999.90;999.90;;;23.30;59.70;;;;;;5012781;28;20273;-45
2021/04/13 08:20:27;;;;;;;1999.90;999.90;;;23.40;57.60;;;;;;5027784;28;20652;-43
2021/04/13 08:22:57;;;;;;;1999.90;999.90;;;23.60;57.40;;;;;;5012663;28;20203;-44
2021/04/13 08:25:33;;;;;;;1999.90;999.90;;;23.80;56.20;;;;;;5028801;28;20637;-46
2021/04/13 08:28:38;;;;;;;1999.90;999.90;;;23.90;55.80;;;;;;5032336;28;20197;-45
2021/04/13 08:34:43;;;;;;;1999.90;999.90;;;25.10;52.90;;;;;;5032350;28;20205;-45
2021/04/13 08:37:22;;;;;;;1999.90;999.90;;;26.40;46.80;;;;;;5032148;28;20549;-44
2021/04/13 08:40:03;;;;;;;1999.90;999.90;;;27.20;41.80;;;;;;5030404;28;20170;-43
2021/04/13 08:42:38;;;;;;;1999.90;999.90;;;27.60;41.50;;;;;;5031460;28;20162;-44
2021/04/13 08:45:19;;;;;;;1999.90;999.90;;;27.50;41.90;;;;;;5031727;28;20157;-43
2021/04/13 08:48:07;;;;;;;1999.90;999.90;;;27.60;41.40;;;;;;5031568;28;20173;-44
2021/04/13 08:50:42;;;;;;;1999.90;999.90;;;27.40;42.60;;;;;;5035177;28;20186;-46
2021/04/13 08:53:53;;;;;;;1999.90;999.90;;;27.60;40.20;;;;;;5031328;28;20211;-52
2021/04/13 08:56:27;;;;;;;1999.90;999.90;;;28.00;38.70;;;;;;5042459;28;20656;-45
2021/04/13 08:59:04;;;;;;;1999.90;999.90;;;28.70;36.80;;;;;;5030771;28;20533;-47
2021/04/13 09:01:43;;;;;;;1999.90;999.90;;;28.80;37.40;;;;;;5031101;28;20170;-47
2021/04/13 09:04:12;;;;;;;1999.90;999.90;;;28.90;36.60;;;;;;5031686;28;20189;-40
2021/04/13 09:06:56;;;;;;;1999.90;999.90;;;28.60;39.30;;;;;;5031479;28;20257;-53
2021/04/13 09:09:45;;;;;;;1999.90;999.90;;;28.50;40.80;;;;;;5030798;28;20855;-45
2021/04/13 09:12:18;;;;;;;1999.90;999.90;;;28.20;38.70;;;;;;5016496;28;20273;-43
2021/04/13 09:15:03;;;;;;;1999.90;999.90;;;28.20;39.90;;;;;;5084753;28;20200;-41
2021/04/13 09:17:57;;;;;;;1999.90;999.90;;;28.50;39.30;;;;;;5035770;28;20238;-46
2021/04/13 09:20:37;;;;;;;1999.90;999.90;;;28.80;38.80;;;;;;5031319;28;20218;-44
2021/04/13 09:23:09;;;;;;;1999.90;999.90;;;29.30;38.60;;;;;;5031218;28;20158;-43
2021/04/13 09:26:01;;;;;;;1999.90;999.90;;;30.20;37.80;;;;;;5035698;27;20170;-41
2021/04/13 09:28:55;;;;;;;1999.90;999.90;;;31.00;37.00;;;;;;5031346;28;20576;-45
2021/04/13 09:31:28;;;;;;;1999.90;999.90;;;31.00;36.00;;;;;;5018020;28;20185;-46
2021/04/13 09:34:29;;;;;;;1999.90;999.90;;;31.20;36.50;;;;;;5013529;28;20206;-43
2021/04/13 09:37:28;;;;;;;1999.90;999.90;;;31.30;35.50;;;;;;5035652;28;20181;-45
2021/04/13 09:40:11;;;;;;;1999.90;999.90;;;31.20;35.20;;;;;;5048693;28;20179;-44
2021/04/13 09:42:56;;;;;;;1999.90;999.90;;;31.20;35.50;;;;;;5030382;28;20257;-44
2021/04/13 09:45:28;;;;;;;1999.90;999.90;;;30.90;34.90;;;;;;5030302;28;20162;-45
2021/04/13 09:48:10;;;;;;;1999.90;999.90;;;31.10;35.00;;;;;;5030702;28;20166;-52
2021/04/13 09:50:47;;;;;;;1999.90;999.90;;;31.30;34.80;;;;;;5030423;28;20211;-47
2021/04/13 09:53:23;;;;;;;1999.90;999.90;;;31.70;34.30;;;;;;5030757;28;20161;-51
2021/04/13 09:56:24;;;;;;;1999.90;999.90;;;32.00;34.10;;;;;;5029981;28;20205;-43
2021/04/13 09:58:57;;;;;;;1999.90;999.90;;;32.20;34.00;;;;;;5015208;28;20268;-46
2021/04/13 10:01:38;;;;;;;1999.90;999.90;;;32.30;34.00;;;;;;5030338;28;20247;-44
2021/04/13 10:04:19;;;;;;;1999.90;999.90;;;32.30;33.10;;;;;;5030539;28;20631;-42
2021/04/13 10:07:05;;;;;;;1999.90;999.90;;;32.10;33.70;;;;;;5045172;27;20500;-41
2021/04/13 10:09:41;;;;;;;1999.90;999.90;;;32.10;33.70;;;;;;5121767;27;20173;-41
2021/04/13 10:12:39;;;;;;;1999.90;999.90;;;32.40;33.10;;;;;;5062538;27;20245;-44
2021/04/13 10:15:48;;;;;;;1999.90;999.90;;;32.60;33.10;;;;;;5044647;28;20198;-42
2021/04/13 10:18:48;;;;;;;1999.90;999.90;;;32.70;32.40;;;;;;5035619;28;20185;-39
2021/04/13 10:21:31;;;;;;;1999.90;999.90;;;32.60;32.00;;;;;;5028900;28;20177;-45
2021/04/13 10:24:03;;;;;;;1999.90;999.90;;;32.60;33.20;;;;;;5029158;28;20161;-45
2021/04/13 10:26:39;;;;;;;1999.90;999.90;;;32.50;33.60;;;;;;5029947;28;20178;-47
2021/04/13 10:29:45;;;;;;;1999.90;999.90;;;32.40;32.60;;;;;;5029862;28;20280;-49
2021/04/13 10:32:54;;;;;;;1999.90;999.90;;;32.40;32.70;;;;;;5030210;28;20165;-44
2021/04/13 10:35:58;;;;;;;1999.90;999.90;;;32.80;32.40;;;;;;5029747;28;20667;-54
2021/04/13 10:39:07;;;;;;;1999.90;999.90;;;33.50;32.10;;;;;;5029842;28;20693;-57
2021/04/13 10:42:01;;;;;;;1999.90;999.90;;;33.80;31.20;;;;;;5084116;27;20163;-53
2021/04/13 10:44:40;;;;;;;1999.90;999.90;;;34.10;30.80;;;;;;5031627;27;20178;-46
2021/04/13 10:47:50;;;;;;;1999.90;999.90;;;34.60;29.40;;;;;;5028250;28;20169;-44
2021/04/13 10:50:55;;;;;;;1999.90;999.90;;;34.60;28.30;;;;;;5035665;28;20190;-49
2021/04/13 10:53:48;;;;;;;1999.90;999.90;;;34.70;28.50;;;;;;5033073;28;20189;-54
2021/04/13 10:56:55;;;;;;;1999.90;999.90;;;34.90;28.20;;;;;;5030083;28;20704;-50
2021/04/13 10:59:31;;;;;;;1999.90;999.90;;;35.20;28.00;;;;;;5029615;28;20181;-48
2021/04/13 11:02:23;;;;;;;1999.90;999.90;;;35.20;27.30;;;;;;5029812;28;20185;-51
2021/04/13 11:05:05;;;;;;;1999.90;999.90;;;35.60;26.80;;;;;;5029515;28;20154;-48
2021/04/13 11:08:02;;;;;;;1999.90;999.90;;;35.70;26.60;;;;;;5029711;28;20181;-50
2021/04/13 11:10:45;;;;;;;1999.90;999.90;;;35.90;26.10;;;;;;5029620;28;20162;-45
2021/04/13 11:13:34;;;;;;;1999.90;999.90;;;36.20;25.60;;;;;;5029437;28;20226;-49
2021/04/13 11:16:41;;;;;;;1999.90;999.90;;;36.20;24.80;;;;;;5030112;28;20174;-53
2021/04/13 11:19:24;;;;;;;1999.90;999.90;;;36.50;24.40;;;;;;5028319;28;20688;-49
2021/04/13 11:22:19;;;;;;;1999.90;999.90;;;36.50;23.50;;;;;;5043945;28;20198;-48
2021/04/13 11:25:00;;;;;;;1999.90;999.90;;;36.50;22.80;;;;;;5019373;28;20235;-48
2021/04/13 11:27:47;;;;;;;1999.90;999.90;;;36.50;22.00;;;;;;5133415;27;20182;-45
2021/04/13 11:30:37;;;;;;;1999.90;999.90;;;36.60;21.50;;;;;;5025612;28;20227;-40
2021/04/13 11:33:26;;;;;;;1999.90;999.90;;;36.70;21.30;;;;;;5033373;28;20157;-41
2021/04/13 11:36:31;;;;;;;1999.90;999.90;;;36.80;20.30;;;;;;5032439;28;20292;-37
2021/04/13 11:39:09;;;;;;;1999.90;999.90;;;36.90;20.00;;;;;;5031823;28;20678;-47
2021/04/13 11:42:09;;;;;;;1999.90;999.90;;;37.00;20.50;;;;;;5032373;28;20210;-39
2021/04/13 11:45:14;;;;;;;1999.90;999.90;;;36.90;19.50;;;;;;5032724;28;20181;-42
2021/04/13 11:47:57;;;;;;;1999.90;999.90;;;36.70;19.80;;;;;;5038558;28;20555;-47
2021/04/13 11:50:30;;;;;;;1999.90;999.90;;;36.60;20.00;;;;;;5032819;28;20165;-43
2021/04/13 11:53:06;;;;;;;1999.90;999.90;;;36.60;20.50;;;;;;5032691;28;20170;-44
2021/04/13 11:55:43;;;;;;;1999.90;999.90;;;36.40;19.90;;;;;;5032044;28;20293;-43
2021/04/13 11:58:14;;;;;;;1999.90;999.90;;;36.50;19.60;;;;;;5032643;28;20162;-44
2021/04/13 12:00:41;;;;;;;1999.90;999.90;;;36.10;19.50;;;;;;5032509;28;20170;-42
2021/04/13 12:03:17;;;;;;;1999.90;999.90;;;36.20;19.60;;;;;;5032516;28;20186;-43
2021/04/13 12:05:55;;;;;;;1999.90;999.90;;;36.00;19.70;;;;;;5032414;28;20161;-38
2021/04/13 12:08:34;;;;;;;1999.90;999.90;;;36.10;20.10;;;;;;5031970;28;20177;-46
2021/04/13 12:11:09;;;;;;;1999.90;999.90;;;36.10;20.60;;;;;;5032380;28;20172;-51
2021/04/13 12:13:47;;;;;;;1999.90;999.90;;;35.90;20.10;;;;;;5032504;28;20158;-41
2021/04/13 12:16:18;;;;;;;1999.90;999.90;;;35.80;19.90;;;;;;5031568;28;20213;-40
2021/04/13 12:19:05;;;;;;;1999.90;999.90;;;35.90;20.60;;;;;;5035309;28;20212;-40
2021/04/13 12:21:35;;;;;;;1999.90;999.90;;;36.10;20.50;;;;;;5044173;27;20281;-40
2021/04/13 12:24:05;;;;;;;1999.90;999.90;;;36.20;19.80;;;;;;5076766;27;20161;-37
2021/04/13 12:26:43;;;;;;;1999.90;999.90;;;36.00;19.80;;;;;;5051966;28;20165;-43
2021/04/13 12:29:29;;;;;;;1999.90;999.90;;;36.10;20.10;;;;;;5076380;27;20219;-46
2021/04/13 12:32:14;;;;;;;1999.90;999.90;;;36.30;19.80;;;;;;5097191;27;20171;-45
2021/04/13 12:34:45;;;;;;;1999.90;999.90;;;36.30;19.30;;;;;;5034687;28;20295;-44
2021/04/13 12:37:40;;;;;;;1999.90;999.90;;;36.20;19.80;;;;;;5033496;28;20303;-44
2021/04/13 12:40:22;;;;;;;1999.90;999.90;;;36.00;19.50;;;;;;5031177;28;20632;-44
2021/04/13 12:42:48;;;;;;;1999.90;999.90;;;35.70;19.60;;;;;;5021605;28;20185;-44
2021/04/13 12:45:21;;;;;;;1999.90;999.90;;;35.80;20.30;;;;;;5030632;28;20181;-44
2021/04/13 12:47:51;;;;;;;1999.90;999.90;;;35.90;20.50;;;;;;5031871;28;20209;-43
2021/04/13 12:50:38;;;;;;;1999.90;999.90;;;36.00;20.30;;;;;;5031415;28;20193;-47
2021/04/13 12:53:17;;;;;;;1999.90;999.90;;;36.10;19.40;;;;;;5032065;28;20162;-46
2021/04/13 12:55:44;;;;;;;1999.90;999.90;;;36.10;21.70;;;;;;5031496;28;20566;-57
2021/04/13 12:58:14;;;;;;;1999.90;999.90;;;36.10;22.20;;;;;;5069602;27;20170;-58
2021/04/13 13:00:46;;;;;;;1999.90;999.90;;;36.20;20.90;;;;;;5031403;28;20174;-45